createdAt,value
2022-09-05T00:05:22.183Z,19.1
2022-09-05T00:15:22.161Z,18.8
2022-09-05T00:25:31.197Z,18.7
2022-09-05T00:35:26.191Z,18.5
2022-09-05T00:45:22.087Z,18.4
2022-09-05T00:55:22.098Z,18.3
2022-09-05T01:05:22.087Z,18.3
2022-09-05T01:15:22.039Z,18.3
2022-09-05T01:25:22.039Z,18.1
2022-09-05T01:35:21.990Z,18.2
2022-09-05T01:45:22.018Z,18.2
2022-09-05T01:55:21.991Z,18
2022-09-05T02:05:48.128Z,17.9
2022-09-05T02:15:21.917Z,17.8
2022-09-05T02:26:00.189Z,17.6
2022-09-05T02:35:21.876Z,17.5
2022-09-05T02:45:25.742Z,17.4
2022-09-05T02:57:34.044Z,17.4
2022-09-05T03:05:21.811Z,17.2
2022-09-05T03:15:22.425Z,17.1
2022-09-05T03:25:21.822Z,17
2022-09-05T03:35:21.755Z,16.9
2022-09-05T03:45:36.724Z,16.8
2022-09-05T03:57:15.205Z,16.8
2022-09-05T04:08:15.899Z,16.8
2022-09-05T04:15:21.698Z,16.8
2022-09-05T04:25:21.696Z,16.7
2022-09-05T04:35:21.660Z,16.5
2022-09-05T04:45:24.231Z,16.6
2022-09-05T04:55:21.640Z,16.4
2022-09-05T05:06:08.550Z,16.5
2022-09-05T05:18:07.037Z,16.4
2022-09-05T05:25:21.583Z,16.4
2022-09-05T05:35:21.518Z,16.5
2022-09-05T05:45:21.526Z,16.6
2022-09-05T05:55:51.313Z,16.7
2022-09-05T06:05:21.458Z,16.8
2022-09-05T06:15:23.046Z,17.1
2022-09-05T06:25:21.427Z,17.4
2022-09-05T06:35:21.397Z,17.6
2022-09-05T06:45:28.351Z,18
2022-09-05T06:55:21.365Z,18.4
2022-09-05T07:05:38.990Z,18.8
2022-09-05T07:15:21.331Z,19.4
2022-09-05T07:35:21.279Z,20.8
2022-09-05T07:45:21.427Z,21.3
2022-09-05T07:56:52.336Z,21.6
2022-09-05T08:05:34.365Z,22
2022-09-05T08:15:21.201Z,22.2
2022-09-05T08:25:21.172Z,22.5
2022-09-05T08:35:21.154Z,22.6
2022-09-05T08:46:42.889Z,22.9
2022-09-05T08:55:21.108Z,23
2022-09-05T09:05:21.090Z,23.3
2022-09-05T09:15:21.110Z,23.6
2022-09-05T09:25:25.133Z,24.1
2022-09-05T09:35:21.028Z,26
2022-09-05T09:45:28.326Z,28.3
2022-09-05T09:55:21.602Z,30.1
2022-09-05T10:10:39.665Z,31.7
2022-09-05T10:15:30.636Z,33
2022-09-05T10:25:21.034Z,34.4
2022-09-05T10:35:23.333Z,35.1
2022-09-05T10:45:25.811Z,35.7
2022-09-05T10:55:20.885Z,36.1
2022-09-05T11:05:20.916Z,36.1
2022-09-05T11:15:20.814Z,36.4
2022-09-05T11:25:39.798Z,37
2022-09-05T11:39:45.768Z,37.6
2022-09-05T11:45:20.775Z,36.8
2022-09-05T11:55:21.652Z,36.2
2022-09-05T12:05:49.921Z,36.5
2022-09-05T12:15:20.704Z,37.1
2022-09-05T12:26:41.657Z,37.5
2022-09-05T12:36:05.374Z,38.4
2022-09-05T12:45:24.130Z,39.1
2022-09-05T12:55:20.660Z,39
2022-09-05T13:05:20.737Z,39.3
2022-09-05T13:15:23.526Z,38.9
2022-09-05T13:25:20.602Z,38.5
2022-09-05T13:38:01.202Z,38.2
2022-09-05T13:45:20.520Z,36.4
2022-09-05T13:55:20.540Z,35.3
2022-09-05T14:05:21.033Z,34.2
2022-09-05T14:15:25.000Z,34.5
2022-09-05T14:25:20.491Z,33.8
2022-09-05T14:37:41.621Z,33.6
2022-09-05T14:45:20.387Z,33.6
2022-09-05T14:55:20.944Z,35.3
2022-09-05T15:05:20.352Z,36
2022-09-05T15:15:20.340Z,35.6
2022-09-05T15:25:20.358Z,35.9
2022-09-05T15:35:20.295Z,35.8
2022-09-05T15:45:20.301Z,34.6
2022-09-05T15:55:20.285Z,35
2022-09-05T16:10:31.242Z,35.6
2022-09-05T16:21:54.248Z,35.2
2022-09-05T16:25:20.283Z,34.9
2022-09-05T16:35:24.984Z,34.6
2022-09-05T16:45:20.180Z,34.8
2022-09-05T16:55:28.978Z,34.1
2022-09-05T17:05:20.102Z,33.3
2022-09-05T17:15:20.113Z,32.9
2022-09-05T17:29:25.253Z,32.3
2022-09-05T17:35:20.053Z,31.6
2022-09-05T17:45:20.085Z,30.6
2022-09-05T17:55:20.035Z,29.6
2022-09-05T18:05:19.989Z,28.7
2022-09-05T18:15:19.992Z,27.9
2022-09-05T18:35:30.837Z,26.7
2022-09-05T18:45:28.815Z,26.3
2022-09-05T18:56:10.320Z,25.8
2022-09-05T19:05:19.844Z,25.4
2022-09-05T19:15:19.852Z,25.1
2022-09-05T19:25:19.835Z,25.1
2022-09-05T19:36:54.343Z,24.8
2022-09-05T19:47:38.913Z,24.4
2022-09-05T19:55:19.744Z,24.2
2022-09-05T20:05:19.720Z,24
2022-09-05T20:15:19.723Z,23.9
2022-09-05T20:25:35.272Z,23.9
2022-09-05T20:40:14.531Z,23.6
2022-09-05T20:45:19.666Z,23.4
2022-09-05T20:55:38.422Z,23.1
2022-09-05T21:05:22.363Z,23
2022-09-05T21:15:22.955Z,23
2022-09-05T21:25:19.540Z,23.1
2022-09-05T21:35:34.437Z,23.2
2022-09-05T21:47:50.095Z,23
2022-09-05T21:59:13.826Z,22.6
2022-09-05T22:05:19.461Z,22.2
2022-09-05T22:15:27.840Z,21.9
2022-09-05T22:25:19.418Z,21.7
2022-09-05T22:35:28.431Z,21.3
2022-09-05T22:45:19.410Z,20.9
2022-09-05T22:55:19.384Z,20.9
2022-09-05T23:05:19.344Z,20.7
2022-09-05T23:15:19.358Z,20.4
2022-09-05T23:25:19.286Z,20.2
2022-09-05T23:35:19.274Z,20
2022-09-05T23:45:19.289Z,19.9
2022-09-05T23:55:19.236Z,19.7
